sensor_id;sensor_type;location;lat;lon;timestamp;P1;durP1;ratioP1;P2;durP2;ratioP2
42840;SDS011;28491;46.898;7.660;2022-08-03T00:01:33;4.53;;;3.50;;
42840;SDS011;28491;46.898;7.660;2022-08-03T00:03:59;5.03;;;3.75;;
42840;SDS011;28491;46.898;7.660;2022-08-03T00:06:25;4.82;;;3.72;;
42840;SDS011;28491;46.898;7.660;2022-08-03T00:08:51;5.90;;;3.97;;
42840;SDS011;28491;46.898;7.660;2022-08-03T00:11:16;5.30;;;3.55;;
42840;SDS011;28491;46.898;7.660;2022-08-03T00:13:42;6.15;;;3.35;;
42840;SDS011;28491;46.898;7.660;2022-08-03T00:16:08;4.88;;;3.88;;
42840;SDS011;28491;46.898;7.660;2022-08-03T00:18:34;5.60;;;3.83;;
42840;SDS011;28491;46.898;7.660;2022-08-03T00:21:01;4.85;;;3.83;;
42840;SDS011;28491;46.898;7.660;2022-08-03T00:23:27;3.97;;;3.47;;
42840;SDS011;28491;46.898;7.660;2022-08-03T00:25:55;5.03;;;3.42;;
42840;SDS011;28491;46.898;7.660;2022-08-03T00:28:21;4.83;;;4.30;;
42840;SDS011;28491;46.898;7.660;2022-08-03T00:30:47;4.30;;;3.80;;
42840;SDS011;28491;46.898;7.660;2022-08-03T00:33:13;7.78;;;3.88;;
42840;SDS011;28491;46.898;7.660;2022-08-03T00:35:38;5.57;;;3.70;;
42840;SDS011;28491;46.898;7.660;2022-08-03T00:38:04;7.68;;;3.70;;
42840;SDS011;28491;46.898;7.660;2022-08-03T00:40:29;6.03;;;3.63;;
42840;SDS011;28491;46.898;7.660;2022-08-03T00:42:56;7.60;;;4.13;;
42840;SDS011;28491;46.898;7.660;2022-08-03T00:45:24;6.00;;;3.60;;
42840;SDS011;28491;46.898;7.660;2022-08-03T00:47:51;4.80;;;3.63;;
42840;SDS011;28491;46.898;7.660;2022-08-03T00:50:17;4.95;;;3.53;;
42840;SDS011;28491;46.898;7.660;2022-08-03T00:52:44;4.43;;;3.60;;
42840;SDS011;28491;46.898;7.660;2022-08-03T00:55:11;6.55;;;3.90;;
42840;SDS011;28491;46.898;7.660;2022-08-03T00:57:37;5.80;;;3.78;;
42840;SDS011;28491;46.898;7.660;2022-08-03T01:00:06;4.68;;;3.42;;
42840;SDS011;28491;46.898;7.660;2022-08-03T01:02:34;6.60;;;3.80;;
42840;SDS011;28491;46.898;7.660;2022-08-03T01:04:59;5.35;;;3.42;;
42840;SDS011;28491;46.898;7.660;2022-08-03T01:07:32;5.35;;;4.07;;
42840;SDS011;28491;46.898;7.660;2022-08-03T01:12:57;5.72;;;3.60;;
42840;SDS011;28491;46.898;7.660;2022-08-03T01:18:07;7.30;;;4.50;;
42840;SDS011;28491;46.898;7.660;2022-08-03T01:20:39;10.45;;;4.35;;
42840;SDS011;28491;46.898;7.660;2022-08-03T01:28:47;5.78;;;4.25;;
42840;SDS011;28491;46.898;7.660;2022-08-03T01:31:50;5.82;;;4.03;;
42840;SDS011;28491;46.898;7.660;2022-08-03T01:34:19;4.95;;;3.55;;
42840;SDS011;28491;46.898;7.660;2022-08-03T01:36:51;4.47;;;3.80;;
42840;SDS011;28491;46.898;7.660;2022-08-03T01:39:20;4.63;;;3.70;;
42840;SDS011;28491;46.898;7.660;2022-08-03T01:41:48;5.80;;;4.05;;
42840;SDS011;28491;46.898;7.660;2022-08-03T01:44:18;6.68;;;3.85;;
42840;SDS011;28491;46.898;7.660;2022-08-03T01:46:46;4.47;;;3.80;;
42840;SDS011;28491;46.898;7.660;2022-08-03T01:49:15;5.18;;;3.08;;
42840;SDS011;28491;46.898;7.660;2022-08-03T01:51:42;5.00;;;3.72;;
42840;SDS011;28491;46.898;7.660;2022-08-03T01:54:09;4.60;;;3.50;;
42840;SDS011;28491;46.898;7.660;2022-08-03T01:56:36;4.95;;;3.85;;
42840;SDS011;28491;46.898;7.660;2022-08-03T01:59:03;5.45;;;3.78;;
42840;SDS011;28491;46.898;7.660;2022-08-03T02:01:31;9.35;;;4.20;;
42840;SDS011;28491;46.898;7.660;2022-08-03T02:03:58;4.38;;;3.60;;
42840;SDS011;28491;46.898;7.660;2022-08-03T02:06:24;5.32;;;3.35;;
42840;SDS011;28491;46.898;7.660;2022-08-03T02:08:51;5.38;;;3.97;;
42840;SDS011;28491;46.898;7.660;2022-08-03T02:11:19;7.20;;;3.42;;
42840;SDS011;28491;46.898;7.660;2022-08-03T02:13:45;8.07;;;4.05;;
42840;SDS011;28491;46.898;7.660;2022-08-03T02:16:12;6.28;;;3.47;;
42840;SDS011;28491;46.898;7.660;2022-08-03T02:18:38;6.20;;;4.20;;
42840;SDS011;28491;46.898;7.660;2022-08-03T02:21:05;7.35;;;4.28;;
42840;SDS011;28491;46.898;7.660;2022-08-03T02:26:01;6.75;;;4.43;;
42840;SDS011;28491;46.898;7.660;2022-08-03T02:28:31;6.73;;;3.57;;
42840;SDS011;28491;46.898;7.660;2022-08-03T02:31:00;5.38;;;3.65;;
42840;SDS011;28491;46.898;7.660;2022-08-03T02:33:30;4.20;;;3.78;;
42840;SDS011;28491;46.898;7.660;2022-08-03T02:36:05;4.45;;;3.40;;
42840;SDS011;28491;46.898;7.660;2022-08-03T02:38:33;5.63;;;3.90;;
42840;SDS011;28491;46.898;7.660;2022-08-03T02:41:04;3.97;;;3.35;;
42840;SDS011;28491;46.898;7.660;2022-08-03T02:43:31;3.97;;;3.33;;
42840;SDS011;28491;46.898;7.660;2022-08-03T02:45:59;5.07;;;3.45;;
42840;SDS011;28491;46.898;7.660;2022-08-03T02:48:29;5.10;;;3.58;;
42840;SDS011;28491;46.898;7.660;2022-08-03T02:50:57;5.65;;;3.38;;
42840;SDS011;28491;46.898;7.660;2022-08-03T02:53:23;4.50;;;3.72;;
42840;SDS011;28491;46.898;7.660;2022-08-03T02:55:51;4.50;;;3.58;;
42840;SDS011;28491;46.898;7.660;2022-08-03T02:58:18;4.40;;;3.45;;
42840;SDS011;28491;46.898;7.660;2022-08-03T03:00:45;4.32;;;3.20;;
42840;SDS011;28491;46.898;7.660;2022-08-03T03:03:12;6.32;;;3.92;;
42840;SDS011;28491;46.898;7.660;2022-08-03T03:05:39;6.28;;;3.38;;
42840;SDS011;28491;46.898;7.660;2022-08-03T03:08:06;7.43;;;3.83;;
42840;SDS011;28491;46.898;7.660;2022-08-03T03:10:37;4.70;;;3.70;;
42840;SDS011;28491;46.898;7.660;2022-08-03T03:13:03;6.47;;;3.28;;
42840;SDS011;28491;46.898;7.660;2022-08-03T03:15:29;4.30;;;3.55;;
42840;SDS011;28491;46.898;7.660;2022-08-03T03:17:59;4.90;;;4.10;;
42840;SDS011;28491;46.898;7.660;2022-08-03T03:20:25;5.78;;;3.55;;
42840;SDS011;28491;46.898;7.660;2022-08-03T03:22:53;6.85;;;3.25;;
42840;SDS011;28491;46.898;7.660;2022-08-03T03:25:19;4.10;;;3.65;;
42840;SDS011;28491;46.898;7.660;2022-08-03T03:27:45;4.90;;;3.33;;
42840;SDS011;28491;46.898;7.660;2022-08-03T03:30:12;6.78;;;3.85;;
42840;SDS011;28491;46.898;7.660;2022-08-03T03:32:38;6.50;;;3.85;;
42840;SDS011;28491;46.898;7.660;2022-08-03T03:35:05;5.55;;;3.97;;
42840;SDS011;28491;46.898;7.660;2022-08-03T03:37:31;6.05;;;3.83;;
42840;SDS011;28491;46.898;7.660;2022-08-03T03:39:57;4.65;;;3.88;;
42840;SDS011;28491;46.898;7.660;2022-08-03T03:42:23;7.15;;;3.85;;
42840;SDS011;28491;46.898;7.660;2022-08-03T03:44:49;4.43;;;3.47;;
42840;SDS011;28491;46.898;7.660;2022-08-03T03:47:15;7.43;;;4.07;;
42840;SDS011;28491;46.898;7.660;2022-08-03T03:49:41;10.93;;;3.75;;
42840;SDS011;28491;46.898;7.660;2022-08-03T03:52:07;7.30;;;4.97;;
42840;SDS011;28491;46.898;7.660;2022-08-03T03:54:41;6.18;;;4.05;;
42840;SDS011;28491;46.898;7.660;2022-08-03T03:57:07;5.95;;;3.70;;
42840;SDS011;28491;46.898;7.660;2022-08-03T03:59:36;5.60;;;3.92;;
42840;SDS011;28491;46.898;7.660;2022-08-03T04:02:02;6.15;;;3.65;;
42840;SDS011;28491;46.898;7.660;2022-08-03T04:04:30;4.95;;;3.88;;
42840;SDS011;28491;46.898;7.660;2022-08-03T04:07:15;5.80;;;4.82;;
42840;SDS011;28491;46.898;7.660;2022-08-03T04:10:00;4.90;;;3.95;;
42840;SDS011;28491;46.898;7.660;2022-08-03T04:12:46;5.55;;;4.30;;
42840;SDS011;28491;46.898;7.660;2022-08-03T04:15:15;5.53;;;4.75;;
42840;SDS011;28491;46.898;7.660;2022-08-03T04:17:49;5.53;;;4.22;;
42840;SDS011;28491;46.898;7.660;2022-08-03T04:20:18;5.30;;;4.50;;
42840;SDS011;28491;46.898;7.660;2022-08-03T04:22:46;6.15;;;4.60;;
42840;SDS011;28491;46.898;7.660;2022-08-03T04:25:15;7.13;;;4.57;;
42840;SDS011;28491;46.898;7.660;2022-08-03T04:27:43;5.63;;;4.33;;
42840;SDS011;28491;46.898;7.660;2022-08-03T04:30:11;6.70;;;4.25;;
42840;SDS011;28491;46.898;7.660;2022-08-03T04:32:38;8.32;;;4.32;;
42840;SDS011;28491;46.898;7.660;2022-08-03T04:35:06;6.55;;;4.28;;
42840;SDS011;28491;46.898;7.660;2022-08-03T04:37:38;6.57;;;4.10;;
42840;SDS011;28491;46.898;7.660;2022-08-03T04:40:12;5.10;;;4.10;;
42840;SDS011;28491;46.898;7.660;2022-08-03T04:42:39;8.55;;;4.07;;
42840;SDS011;28491;46.898;7.660;2022-08-03T04:45:07;8.63;;;4.22;;
42840;SDS011;28491;46.898;7.660;2022-08-03T04:47:36;5.35;;;4.40;;
42840;SDS011;28491;46.898;7.660;2022-08-03T04:50:03;5.18;;;4.10;;
42840;SDS011;28491;46.898;7.660;2022-08-03T04:52:30;4.88;;;4.18;;
42840;SDS011;28491;46.898;7.660;2022-08-03T04:54:57;5.28;;;4.38;;
42840;SDS011;28491;46.898;7.660;2022-08-03T04:57:22;7.65;;;4.20;;
42840;SDS011;28491;46.898;7.660;2022-08-03T04:59:48;9.00;;;4.40;;
42840;SDS011;28491;46.898;7.660;2022-08-03T05:02:18;7.15;;;4.82;;
42840;SDS011;28491;46.898;7.660;2022-08-03T05:04:45;5.53;;;4.38;;
42840;SDS011;28491;46.898;7.660;2022-08-03T05:07:11;9.82;;;4.68;;
42840;SDS011;28491;46.898;7.660;2022-08-03T05:09:37;8.90;;;4.43;;
42840;SDS011;28491;46.898;7.660;2022-08-03T05:12:04;5.57;;;3.78;;
42840;SDS011;28491;46.898;7.660;2022-08-03T05:14:30;5.40;;;3.92;;
42840;SDS011;28491;46.898;7.660;2022-08-03T05:16:56;5.85;;;4.57;;
42840;SDS011;28491;46.898;7.660;2022-08-03T05:19:22;5.40;;;3.90;;
42840;SDS011;28491;46.898;7.660;2022-08-03T05:21:47;5.68;;;4.03;;
42840;SDS011;28491;46.898;7.660;2022-08-03T05:24:13;6.75;;;3.72;;
42840;SDS011;28491;46.898;7.660;2022-08-03T05:26:38;6.95;;;4.05;;
42840;SDS011;28491;46.898;7.660;2022-08-03T05:29:04;7.53;;;3.70;;
42840;SDS011;28491;46.898;7.660;2022-08-03T05:31:29;4.22;;;3.38;;
42840;SDS011;28491;46.898;7.660;2022-08-03T05:33:55;5.82;;;4.63;;
42840;SDS011;28491;46.898;7.660;2022-08-03T05:36:21;5.50;;;3.50;;
42840;SDS011;28491;46.898;7.660;2022-08-03T05:38:47;6.88;;;4.30;;
42840;SDS011;28491;46.898;7.660;2022-08-03T05:41:12;9.55;;;3.95;;
42840;SDS011;28491;46.898;7.660;2022-08-03T05:43:38;6.63;;;5.05;;
42840;SDS011;28491;46.898;7.660;2022-08-03T05:46:03;4.50;;;3.38;;
42840;SDS011;28491;46.898;7.660;2022-08-03T05:48:29;4.45;;;3.13;;
42840;SDS011;28491;46.898;7.660;2022-08-03T05:50:54;4.47;;;4.00;;
42840;SDS011;28491;46.898;7.660;2022-08-03T05:53:20;3.78;;;3.03;;
42840;SDS011;28491;46.898;7.660;2022-08-03T05:55:46;5.20;;;3.10;;
42840;SDS011;28491;46.898;7.660;2022-08-03T05:58:11;8.82;;;3.65;;
42840;SDS011;28491;46.898;7.660;2022-08-03T06:00:37;6.85;;;3.30;;
42840;SDS011;28491;46.898;7.660;2022-08-03T06:03:03;3.80;;;3.25;;
42840;SDS011;28491;46.898;7.660;2022-08-03T06:05:29;4.53;;;3.30;;
42840;SDS011;28491;46.898;7.660;2022-08-03T06:07:55;5.05;;;3.50;;
42840;SDS011;28491;46.898;7.660;2022-08-03T06:10:20;6.63;;;3.80;;
42840;SDS011;28491;46.898;7.660;2022-08-03T06:12:46;5.93;;;3.42;;
42840;SDS011;28491;46.898;7.660;2022-08-03T06:15:13;7.07;;;3.67;;
42840;SDS011;28491;46.898;7.660;2022-08-03T06:17:46;6.30;;;3.88;;
42840;SDS011;28491;46.898;7.660;2022-08-03T06:20:12;5.95;;;4.60;;
42840;SDS011;28491;46.898;7.660;2022-08-03T06:22:40;5.47;;;4.10;;
42840;SDS011;28491;46.898;7.660;2022-08-03T06:25:06;5.00;;;4.20;;
42840;SDS011;28491;46.898;7.660;2022-08-03T06:27:32;6.28;;;4.18;;
42840;SDS011;28491;46.898;7.660;2022-08-03T06:29:58;6.80;;;3.75;;
42840;SDS011;28491;46.898;7.660;2022-08-03T06:32:23;5.15;;;4.18;;
42840;SDS011;28491;46.898;7.660;2022-08-03T06:34:48;5.00;;;3.58;;
42840;SDS011;28491;46.898;7.660;2022-08-03T06:37:15;9.88;;;4.47;;
42840;SDS011;28491;46.898;7.660;2022-08-03T06:39:40;7.07;;;4.38;;
42840;SDS011;28491;46.898;7.660;2022-08-03T06:42:06;7.00;;;4.10;;
42840;SDS011;28491;46.898;7.660;2022-08-03T06:44:31;5.60;;;3.72;;
42840;SDS011;28491;46.898;7.660;2022-08-03T06:46:57;6.90;;;4.50;;
42840;SDS011;28491;46.898;7.660;2022-08-03T06:49:23;5.75;;;3.83;;
42840;SDS011;28491;46.898;7.660;2022-08-03T06:51:48;4.25;;;3.53;;
42840;SDS011;28491;46.898;7.660;2022-08-03T06:54:17;5.90;;;4.20;;
42840;SDS011;28491;46.898;7.660;2022-08-03T06:56:43;6.80;;;4.00;;
42840;SDS011;28491;46.898;7.660;2022-08-03T06:59:09;8.63;;;3.60;;
42840;SDS011;28491;46.898;7.660;2022-08-03T07:01:34;8.82;;;3.80;;
42840;SDS011;28491;46.898;7.660;2022-08-03T07:04:00;6.78;;;3.95;;
42840;SDS011;28491;46.898;7.660;2022-08-03T07:06:25;7.63;;;4.35;;
42840;SDS011;28491;46.898;7.660;2022-08-03T07:08:51;4.65;;;3.75;;
42840;SDS011;28491;46.898;7.660;2022-08-03T07:11:16;7.50;;;3.80;;
42840;SDS011;28491;46.898;7.660;2022-08-03T07:13:42;6.32;;;3.85;;
42840;SDS011;28491;46.898;7.660;2022-08-03T07:16:08;5.13;;;3.40;;
42840;SDS011;28491;46.898;7.660;2022-08-03T07:18:36;3.97;;;3.35;;
42840;SDS011;28491;46.898;7.660;2022-08-03T07:21:02;5.55;;;3.53;;
42840;SDS011;28491;46.898;7.660;2022-08-03T07:23:28;4.78;;;4.10;;
42840;SDS011;28491;46.898;7.660;2022-08-03T07:25:53;4.20;;;3.60;;
42840;SDS011;28491;46.898;7.660;2022-08-03T07:28:19;4.45;;;3.20;;
42840;SDS011;28491;46.898;7.660;2022-08-03T07:30:45;5.88;;;3.70;;
42840;SDS011;28491;46.898;7.660;2022-08-03T07:33:11;5.10;;;3.67;;
42840;SDS011;28491;46.898;7.660;2022-08-03T07:35:37;8.60;;;4.47;;
42840;SDS011;28491;46.898;7.660;2022-08-03T07:38:02;5.47;;;3.78;;
42840;SDS011;28491;46.898;7.660;2022-08-03T07:40:28;5.18;;;3.35;;
42840;SDS011;28491;46.898;7.660;2022-08-03T07:42:54;6.05;;;3.50;;
42840;SDS011;28491;46.898;7.660;2022-08-03T07:45:19;7.18;;;3.88;;
42840;SDS011;28491;46.898;7.660;2022-08-03T07:47:47;6.00;;;3.83;;
42840;SDS011;28491;46.898;7.660;2022-08-03T07:50:12;4.55;;;3.95;;
42840;SDS011;28491;46.898;7.660;2022-08-03T07:52:38;8.90;;;4.70;;
42840;SDS011;28491;46.898;7.660;2022-08-03T07:55:17;7.82;;;4.85;;
42840;SDS011;28491;46.898;7.660;2022-08-03T07:57:45;10.93;;;4.82;;
42840;SDS011;28491;46.898;7.660;2022-08-03T08:00:12;6.13;;;4.30;;
42840;SDS011;28491;46.898;7.660;2022-08-03T08:02:40;8.35;;;4.45;;
42840;SDS011;28491;46.898;7.660;2022-08-03T08:05:06;6.68;;;3.40;;
42840;SDS011;28491;46.898;7.660;2022-08-03T08:07:32;4.22;;;3.50;;
42840;SDS011;28491;46.898;7.660;2022-08-03T08:09:58;8.02;;;3.42;;
42840;SDS011;28491;46.898;7.660;2022-08-03T08:12:23;3.95;;;3.53;;
42840;SDS011;28491;46.898;7.660;2022-08-03T08:14:49;5.35;;;3.42;;
42840;SDS011;28491;46.898;7.660;2022-08-03T08:17:15;4.72;;;2.58;;
42840;SDS011;28491;46.898;7.660;2022-08-03T08:19:40;5.18;;;2.65;;
42840;SDS011;28491;46.898;7.660;2022-08-03T08:22:06;5.45;;;3.40;;
42840;SDS011;28491;46.898;7.660;2022-08-03T08:24:31;7.32;;;3.20;;
42840;SDS011;28491;46.898;7.660;2022-08-03T08:26:58;7.88;;;3.72;;
42840;SDS011;28491;46.898;7.660;2022-08-03T08:29:25;5.53;;;3.28;;
42840;SDS011;28491;46.898;7.660;2022-08-03T08:31:50;6.10;;;2.55;;
42840;SDS011;28491;46.898;7.660;2022-08-03T08:34:16;4.75;;;2.80;;
42840;SDS011;28491;46.898;7.660;2022-08-03T08:36:42;4.00;;;2.85;;
42840;SDS011;28491;46.898;7.660;2022-08-03T08:39:07;3.90;;;2.80;;
42840;SDS011;28491;46.898;7.660;2022-08-03T08:41:33;4.60;;;2.63;;
42840;SDS011;28491;46.898;7.660;2022-08-03T08:43:59;5.38;;;2.80;;
42840;SDS011;28491;46.898;7.660;2022-08-03T08:46:25;3.88;;;2.85;;
42840;SDS011;28491;46.898;7.660;2022-08-03T08:48:53;4.47;;;3.23;;
42840;SDS011;28491;46.898;7.660;2022-08-03T08:51:20;4.45;;;3.30;;
42840;SDS011;28491;46.898;7.660;2022-08-03T08:53:51;6.10;;;3.42;;
42840;SDS011;28491;46.898;7.660;2022-08-03T08:56:17;4.82;;;3.10;;
42840;SDS011;28491;46.898;7.660;2022-08-03T08:58:47;6.32;;;3.42;;
42840;SDS011;28491;46.898;7.660;2022-08-03T09:01:22;4.13;;;2.88;;
42840;SDS011;28491;46.898;7.660;2022-08-03T09:03:47;3.70;;;2.97;;
42840;SDS011;28491;46.898;7.660;2022-08-03T09:06:13;4.75;;;2.72;;
42840;SDS011;28491;46.898;7.660;2022-08-03T09:08:39;5.07;;;3.17;;
42840;SDS011;28491;46.898;7.660;2022-08-03T09:11:05;3.72;;;3.03;;
42840;SDS011;28491;46.898;7.660;2022-08-03T09:18:45;5.22;;;3.72;;
42840;SDS011;28491;46.898;7.660;2022-08-03T09:23:44;7.70;;;2.97;;
42840;SDS011;28491;46.898;7.660;2022-08-03T09:26:10;3.80;;;2.80;;
42840;SDS011;28491;46.898;7.660;2022-08-03T09:28:36;5.45;;;3.05;;
42840;SDS011;28491;46.898;7.660;2022-08-03T09:31:02;4.55;;;3.03;;
42840;SDS011;28491;46.898;7.660;2022-08-03T09:33:27;6.50;;;3.80;;
42840;SDS011;28491;46.898;7.660;2022-08-03T09:35:53;4.88;;;3.05;;
42840;SDS011;28491;46.898;7.660;2022-08-03T09:38:24;4.75;;;2.97;;
42840;SDS011;28491;46.898;7.660;2022-08-03T09:40:52;4.60;;;2.88;;
42840;SDS011;28491;46.898;7.660;2022-08-03T09:43:19;7.18;;;2.83;;
42840;SDS011;28491;46.898;7.660;2022-08-03T09:45:45;3.85;;;2.83;;
42840;SDS011;28491;46.898;7.660;2022-08-03T09:48:28;4.45;;;3.40;;
42840;SDS011;28491;46.898;7.660;2022-08-03T09:50:55;5.45;;;2.78;;
42840;SDS011;28491;46.898;7.660;2022-08-03T09:53:24;5.18;;;3.13;;
42840;SDS011;28491;46.898;7.660;2022-08-03T09:55:51;4.38;;;2.95;;
42840;SDS011;28491;46.898;7.660;2022-08-03T09:58:21;6.05;;;3.30;;
42840;SDS011;28491;46.898;7.660;2022-08-03T10:03:19;6.03;;;2.90;;
42840;SDS011;28491;46.898;7.660;2022-08-03T10:05:45;6.03;;;3.10;;
42840;SDS011;28491;46.898;7.660;2022-08-03T10:08:17;5.93;;;2.95;;
42840;SDS011;28491;46.898;7.660;2022-08-03T10:10:45;2.85;;;2.42;;
42840;SDS011;28491;46.898;7.660;2022-08-03T10:13:12;4.47;;;2.20;;
42840;SDS011;28491;46.898;7.660;2022-08-03T10:15:39;4.95;;;2.50;;
42840;SDS011;28491;46.898;7.660;2022-08-03T10:18:05;3.38;;;2.53;;
42840;SDS011;28491;46.898;7.660;2022-08-03T10:20:31;5.75;;;2.95;;
42840;SDS011;28491;46.898;7.660;2022-08-03T10:23:19;4.28;;;2.85;;
42840;SDS011;28491;46.898;7.660;2022-08-03T10:25:46;4.32;;;2.25;;
42840;SDS011;28491;46.898;7.660;2022-08-03T10:28:17;5.05;;;2.72;;
42840;SDS011;28491;46.898;7.660;2022-08-03T10:30:51;3.75;;;2.17;;
42840;SDS011;28491;46.898;7.660;2022-08-03T10:33:21;4.57;;;2.47;;
42840;SDS011;28491;46.898;7.660;2022-08-03T10:35:52;3.38;;;2.20;;
42840;SDS011;28491;46.898;7.660;2022-08-03T10:38:22;7.40;;;2.88;;
42840;SDS011;28491;46.898;7.660;2022-08-03T10:40:53;6.63;;;2.38;;
42840;SDS011;28491;46.898;7.660;2022-08-03T10:43:26;3.38;;;2.35;;
42840;SDS011;28491;46.898;7.660;2022-08-03T10:45:56;3.22;;;2.25;;
42840;SDS011;28491;46.898;7.660;2022-08-03T10:48:23;3.00;;;2.22;;
42840;SDS011;28491;46.898;7.660;2022-08-03T10:50:50;5.28;;;2.45;;
42840;SDS011;28491;46.898;7.660;2022-08-03T10:53:16;3.15;;;2.38;;
42840;SDS011;28491;46.898;7.660;2022-08-03T10:56:00;3.55;;;1.98;;
42840;SDS011;28491;46.898;7.660;2022-08-03T10:58:45;6.00;;;2.38;;
42840;SDS011;28491;46.898;7.660;2022-08-03T11:01:11;2.70;;;2.22;;
42840;SDS011;28491;46.898;7.660;2022-08-03T11:06:18;4.78;;;1.80;;
42840;SDS011;28491;46.898;7.660;2022-08-03T11:08:46;5.65;;;2.00;;
42840;SDS011;28491;46.898;7.660;2022-08-03T11:13:55;2.65;;;1.65;;
42840;SDS011;28491;46.898;7.660;2022-08-03T11:19:00;3.88;;;1.92;;
42840;SDS011;28491;46.898;7.660;2022-08-03T11:35:10;1.80;;;1.40;;
42840;SDS011;28491;46.898;7.660;2022-08-03T11:46:08;2.40;;;1.70;;
42840;SDS011;28491;46.898;7.660;2022-08-03T11:48:45;2.65;;;1.63;;
42840;SDS011;28491;46.898;7.660;2022-08-03T11:51:22;6.47;;;1.98;;
42840;SDS011;28491;46.898;7.660;2022-08-03T11:53:56;5.68;;;1.80;;
42840;SDS011;28491;46.898;7.660;2022-08-03T11:56:42;4.70;;;1.73;;
42840;SDS011;28491;46.898;7.660;2022-08-03T11:59:12;3.42;;;1.70;;
42840;SDS011;28491;46.898;7.660;2022-08-03T12:01:38;2.65;;;1.90;;
42840;SDS011;28491;46.898;7.660;2022-08-03T12:04:05;3.40;;;1.52;;
42840;SDS011;28491;46.898;7.660;2022-08-03T12:06:31;2.25;;;1.60;;
42840;SDS011;28491;46.898;7.660;2022-08-03T12:09:18;3.65;;;1.80;;
42840;SDS011;28491;46.898;7.660;2022-08-03T12:11:47;3.30;;;1.95;;
42840;SDS011;28491;46.898;7.660;2022-08-03T12:14:16;2.40;;;1.98;;
42840;SDS011;28491;46.898;7.660;2022-08-03T12:16:46;2.92;;;1.83;;
42840;SDS011;28491;46.898;7.660;2022-08-03T12:19:12;2.72;;;1.90;;
42840;SDS011;28491;46.898;7.660;2022-08-03T12:21:48;3.35;;;2.20;;
42840;SDS011;28491;46.898;7.660;2022-08-03T12:24:14;5.38;;;2.28;;
42840;SDS011;28491;46.898;7.660;2022-08-03T12:26:42;3.13;;;1.88;;
42840;SDS011;28491;46.898;7.660;2022-08-03T12:29:21;3.92;;;1.63;;
42840;SDS011;28491;46.898;7.660;2022-08-03T12:31:49;4.55;;;1.67;;
42840;SDS011;28491;46.898;7.660;2022-08-03T12:34:15;3.17;;;1.90;;
42840;SDS011;28491;46.898;7.660;2022-08-03T12:36:50;5.18;;;1.83;;
42840;SDS011;28491;46.898;7.660;2022-08-03T12:39:24;2.13;;;1.48;;
42840;SDS011;28491;46.898;7.660;2022-08-03T12:41:53;2.47;;;1.83;;
42840;SDS011;28491;46.898;7.660;2022-08-03T12:44:28;4.78;;;2.20;;
42840;SDS011;28491;46.898;7.660;2022-08-03T12:46:58;3.42;;;1.80;;
42840;SDS011;28491;46.898;7.660;2022-08-03T12:49:24;3.63;;;1.63;;
42840;SDS011;28491;46.898;7.660;2022-08-03T12:54:21;2.60;;;1.73;;
42840;SDS011;28491;46.898;7.660;2022-08-03T12:57:10;3.13;;;2.15;;
42840;SDS011;28491;46.898;7.660;2022-08-03T12:59:40;3.30;;;2.15;;
42840;SDS011;28491;46.898;7.660;2022-08-03T13:02:16;5.50;;;2.08;;
42840;SDS011;28491;46.898;7.660;2022-08-03T13:04:43;3.17;;;2.15;;
42840;SDS011;28491;46.898;7.660;2022-08-03T13:07:10;2.78;;;2.20;;
42840;SDS011;28491;46.898;7.660;2022-08-03T13:09:40;3.20;;;1.65;;
42840;SDS011;28491;46.898;7.660;2022-08-03T13:12:16;3.13;;;2.00;;
42840;SDS011;28491;46.898;7.660;2022-08-03T13:14:45;2.47;;;1.80;;
42840;SDS011;28491;46.898;7.660;2022-08-03T13:19:38;5.03;;;1.70;;
42840;SDS011;28491;46.898;7.660;2022-08-03T13:24:51;3.60;;;2.38;;
42840;SDS011;28491;46.898;7.660;2022-08-03T13:27:19;4.88;;;1.90;;
42840;SDS011;28491;46.898;7.660;2022-08-03T13:29:45;2.53;;;1.83;;
42840;SDS011;28491;46.898;7.660;2022-08-03T13:32:11;6.85;;;2.03;;
42840;SDS011;28491;46.898;7.660;2022-08-03T13:34:36;3.75;;;1.92;;
42840;SDS011;28491;46.898;7.660;2022-08-03T13:37:02;4.82;;;2.03;;
42840;SDS011;28491;46.898;7.660;2022-08-03T13:39:28;3.10;;;1.80;;
42840;SDS011;28491;46.898;7.660;2022-08-03T13:41:54;2.42;;;1.63;;
42840;SDS011;28491;46.898;7.660;2022-08-03T13:44:20;3.88;;;1.90;;
42840;SDS011;28491;46.898;7.660;2022-08-03T13:46:46;2.15;;;1.52;;
42840;SDS011;28491;46.898;7.660;2022-08-03T13:49:12;4.60;;;1.60;;
42840;SDS011;28491;46.898;7.660;2022-08-03T13:51:37;6.43;;;2.00;;
42840;SDS011;28491;46.898;7.660;2022-08-03T13:54:03;4.47;;;1.80;;
42840;SDS011;28491;46.898;7.660;2022-08-03T13:56:29;3.00;;;1.55;;
42840;SDS011;28491;46.898;7.660;2022-08-03T13:58:55;4.05;;;1.73;;
42840;SDS011;28491;46.898;7.660;2022-08-03T14:01:21;2.53;;;1.67;;
42840;SDS011;28491;46.898;7.660;2022-08-03T14:03:48;3.85;;;2.10;;
42840;SDS011;28491;46.898;7.660;2022-08-03T14:06:18;5.78;;;1.95;;
42840;SDS011;28491;46.898;7.660;2022-08-03T14:08:44;3.10;;;1.98;;
42840;SDS011;28491;46.898;7.660;2022-08-03T14:11:10;2.67;;;1.52;;
42840;SDS011;28491;46.898;7.660;2022-08-03T14:16:03;2.63;;;1.40;;
42840;SDS011;28491;46.898;7.660;2022-08-03T14:18:29;3.22;;;1.75;;
42840;SDS011;28491;46.898;7.660;2022-08-03T14:20:55;2.40;;;1.30;;
42840;SDS011;28491;46.898;7.660;2022-08-03T14:23:22;2.17;;;1.65;;
42840;SDS011;28491;46.898;7.660;2022-08-03T14:25:47;5.25;;;1.83;;
42840;SDS011;28491;46.898;7.660;2022-08-03T14:28:13;3.15;;;1.40;;
42840;SDS011;28491;46.898;7.660;2022-08-03T14:30:38;2.47;;;1.60;;
42840;SDS011;28491;46.898;7.660;2022-08-03T14:33:04;2.88;;;1.40;;
42840;SDS011;28491;46.898;7.660;2022-08-03T14:35:29;4.35;;;1.42;;
42840;SDS011;28491;46.898;7.660;2022-08-03T14:37:55;2.60;;;1.70;;
42840;SDS011;28491;46.898;7.660;2022-08-03T14:40:20;4.15;;;1.70;;
42840;SDS011;28491;46.898;7.660;2022-08-03T14:42:46;4.88;;;1.83;;
42840;SDS011;28491;46.898;7.660;2022-08-03T14:45:12;6.25;;;1.52;;
42840;SDS011;28491;46.898;7.660;2022-08-03T14:47:38;2.92;;;1.80;;
42840;SDS011;28491;46.898;7.660;2022-08-03T14:50:04;3.58;;;1.55;;
42840;SDS011;28491;46.898;7.660;2022-08-03T14:52:31;2.83;;;1.50;;
42840;SDS011;28491;46.898;7.660;2022-08-03T14:54:57;4.78;;;1.63;;
42840;SDS011;28491;46.898;7.660;2022-08-03T14:57:23;2.30;;;1.50;;
42840;SDS011;28491;46.898;7.660;2022-08-03T14:59:49;4.10;;;1.75;;
42840;SDS011;28491;46.898;7.660;2022-08-03T15:02:15;5.13;;;1.50;;
42840;SDS011;28491;46.898;7.660;2022-08-03T15:04:40;2.40;;;1.60;;
42840;SDS011;28491;46.898;7.660;2022-08-03T15:07:06;5.15;;;1.23;;
42840;SDS011;28491;46.898;7.660;2022-08-03T15:09:32;2.90;;;1.50;;
42840;SDS011;28491;46.898;7.660;2022-08-03T15:11:58;2.75;;;1.70;;
42840;SDS011;28491;46.898;7.660;2022-08-03T15:14:23;5.28;;;2.10;;
42840;SDS011;28491;46.898;7.660;2022-08-03T15:16:49;2.25;;;1.35;;
42840;SDS011;28491;46.898;7.660;2022-08-03T15:19:14;4.25;;;1.20;;
42840;SDS011;28491;46.898;7.660;2022-08-03T15:21:40;2.30;;;1.65;;
42840;SDS011;28491;46.898;7.660;2022-08-03T15:24:06;1.95;;;1.65;;
42840;SDS011;28491;46.898;7.660;2022-08-03T15:26:31;3.45;;;1.65;;
42840;SDS011;28491;46.898;7.660;2022-08-03T15:28:57;3.05;;;1.30;;
42840;SDS011;28491;46.898;7.660;2022-08-03T15:31:23;3.83;;;1.40;;
42840;SDS011;28491;46.898;7.660;2022-08-03T15:33:49;3.45;;;1.70;;
42840;SDS011;28491;46.898;7.660;2022-08-03T15:36:17;2.67;;;1.42;;
42840;SDS011;28491;46.898;7.660;2022-08-03T15:38:44;3.25;;;1.73;;
42840;SDS011;28491;46.898;7.660;2022-08-03T15:41:10;4.20;;;1.60;;
42840;SDS011;28491;46.898;7.660;2022-08-03T15:43:37;4.07;;;1.35;;
42840;SDS011;28491;46.898;7.660;2022-08-03T15:46:02;4.05;;;1.63;;
42840;SDS011;28491;46.898;7.660;2022-08-03T15:48:28;12.65;;;1.73;;
42840;SDS011;28491;46.898;7.660;2022-08-03T15:50:53;3.58;;;1.50;;
42840;SDS011;28491;46.898;7.660;2022-08-03T15:53:19;2.88;;;1.40;;
42840;SDS011;28491;46.898;7.660;2022-08-03T15:55:45;2.45;;;1.30;;